Time;durP1;ratioP1;P1;durP2;ratioP2;P2;SDS_P1;SDS_P2;PMS_P1;PMS_P2;Temp;Humidity;BMP_temperature;BMP_pressure;BME280_temperature;BME280_humidity;BME280_pressure;Samples;Min_cycle;Max_cycle;Signal;HPM_P1;HPM_P2
2022/12/25 00:01:11;;;;;;;11.02;5.00;;;8.80;99.90;;;;;;5109930;28;20020;-78
2022/12/25 00:03:38;;;;;;;8.93;4.57;;;8.90;99.90;;;;;;5080942;28;20059;-77
2022/12/25 00:06:04;;;;;;;7.30;3.88;;;8.90;99.90;;;;;;5089742;28;20032;-78
2022/12/25 00:08:30;;;;;;;18.15;4.72;;;9.00;99.90;;;;;;5071427;28;20044;-78
2022/12/25 00:11:01;;;;;;;14.80;5.68;;;9.00;99.90;;;;;;5071787;28;20044;-78
2022/12/25 00:13:27;;;;;;;8.80;3.85;;;9.00;99.90;;;;;;5082319;28;20060;-78
2022/12/25 00:15:53;;;;;;;8.57;4.57;;;9.10;99.90;;;;;;5111891;28;20043;-78
2022/12/25 00:18:20;;;;;;;7.85;4.07;;;9.10;99.90;;;;;;5130310;28;20020;-78
2022/12/25 00:20:58;;;;;;;7.60;4.82;;;9.10;99.90;;;;;;5130311;28;20015;-77
2022/12/25 00:23:25;;;;;;;14.57;3.90;;;9.10;99.90;;;;;;5094477;28;20104;-78
2022/12/25 00:25:52;;;;;;;14.20;4.55;;;9.20;99.90;;;;;;5091569;28;20027;-77
2022/12/25 00:28:19;;;;;;;6.88;4.07;;;9.20;99.90;;;;;;5091506;28;20491;-78
2022/12/25 00:30:45;;;;;;;8.77;4.13;;;;;;;;;;5091615;28;20050;-78
2022/12/25 00:33:11;;;;;;;6.45;3.92;;;9.30;99.90;;;;;;5091581;28;20083;-77
2022/12/25 00:35:37;;;;;;;6.75;4.13;;;9.30;99.90;;;;;;5109689;28;20028;-78
2022/12/25 00:38:03;;;;;;;9.60;4.68;;;9.30;99.90;;;;;;5091708;28;20058;-77
2022/12/25 00:40:28;;;;;;;12.15;3.80;;;9.30;99.90;;;;;;5091478;28;20050;-76
2022/12/25 00:42:54;;;;;;;7.00;5.93;;;9.30;99.90;;;;;;5087026;28;20039;-78
2022/12/25 00:45:20;;;;;;;9.32;3.33;;;9.30;99.90;;;;;;5111423;28;20050;-77
2022/12/25 00:47:46;;;;;;;5.72;3.97;;;9.30;99.90;;;;;;5095106;28;20038;-77
2022/12/25 00:50:11;;;;;;;8.60;3.58;;;9.20;99.90;;;;;;5129802;28;20083;-78
2022/12/25 00:52:37;;;;;;;5.20;4.70;;;9.20;99.90;;;;;;5118195;28;20527;-78
2022/12/25 00:55:04;;;;;;;13.25;4.97;;;9.20;99.90;;;;;;5109577;28;20020;-78
2022/12/25 00:57:30;;;;;;;13.27;3.85;;;9.20;99.90;;;;;;5109236;28;20024;-77
2022/12/25 00:59:56;;;;;;;7.10;3.85;;;9.20;99.90;;;;;;5074055;28;20035;-77
2022/12/25 01:02:22;;;;;;;5.10;3.40;;;9.20;99.90;;;;;;5090624;28;20039;-77
2022/12/25 01:04:49;;;;;;;14.27;5.25;;;9.30;99.90;;;;;;5090705;28;20073;-77
2022/12/25 01:07:16;;;;;;;8.40;5.88;;;9.30;99.90;;;;;;5091211;28;20119;-78
2022/12/25 01:12:28;;;;;;;7.97;2.92;;;9.40;99.90;;;;;;5094863;28;20028;-77
2022/12/25 01:14:54;;;;;;;7.63;4.57;;;9.40;99.90;;;;;;5077317;28;20041;-77
2022/12/25 01:17:20;;;;;;;5.95;3.70;;;9.40;99.90;;;;;;5068781;28;20041;-77
2022/12/25 01:19:46;;;;;;;7.32;2.80;;;9.40;99.90;;;;;;5067787;28;20017;-77
2022/12/25 01:22:12;;;;;;;4.88;2.67;;;9.40;99.90;;;;;;5073688;28;20034;-77
2022/12/25 01:24:38;;;;;;;6.38;3.35;;;9.40;99.90;;;;;;5087414;28;20017;-78
2022/12/25 01:27:04;;;;;;;11.82;5.05;;;9.40;99.90;;;;;;5070193;28;20107;-77
2022/12/25 01:29:30;;;;;;;6.78;4.60;;;9.40;99.90;;;;;;5086484;28;20062;-77
2022/12/25 01:31:56;;;;;;;9.98;4.22;;;9.40;99.90;;;;;;5087119;28;20025;-78
2022/12/25 01:34:21;;;;;;;9.15;3.60;;;9.40;99.90;;;;;;5087929;28;20421;-78
2022/12/25 01:36:48;;;;;;;7.18;4.63;;;9.40;99.90;;;;;;5069755;28;20054;-77
2022/12/25 01:39:14;;;;;;;12.63;3.30;;;9.40;99.90;;;;;;5069723;28;20115;-78
2022/12/25 01:41:40;;;;;;;4.72;3.65;;;9.40;99.90;;;;;;5068240;28;20082;-78
2022/12/25 01:44:15;;;;;;;10.75;3.33;;;9.40;99.90;;;;;;5082916;28;20028;-77
2022/12/25 01:46:42;;;;;;;8.10;4.55;;;9.40;99.90;;;;;;5065723;28;20037;-77
2022/12/25 01:49:11;;;;;;;12.27;4.65;;;9.50;99.90;;;;;;5067183;28;20032;-78
2022/12/25 01:51:43;;;;;;;8.65;4.00;;;9.50;99.90;;;;;;5067749;28;20538;-77
2022/12/25 01:54:13;;;;;;;8.50;4.25;;;9.40;99.90;;;;;;5085229;28;20121;-78
2022/12/25 01:56:41;;;;;;;9.50;3.50;;;9.40;99.90;;;;;;5087238;28;20766;-78
2022/12/25 01:59:08;;;;;;;7.13;3.33;;;9.40;99.90;;;;;;5085987;28;20108;-78
2022/12/25 02:01:34;;;;;;;5.80;3.55;;;9.40;99.90;;;;;;5085518;28;20025;-77
2022/12/25 02:04:37;;;;;;;10.73;3.85;;;9.40;99.90;;;;;;5065795;28;20044;-78
2022/12/25 02:07:14;;;;;;;7.25;4.32;;;9.30;99.90;;;;;;5065518;28;20028;-76
2022/12/25 02:09:40;;;;;;;6.70;3.30;;;9.30;99.90;;;;;;5066116;28;20037;-76
2022/12/25 02:12:08;;;;;;;7.13;4.95;;;9.30;99.90;;;;;;5070560;28;20051;-76
2022/12/25 02:14:35;;;;;;;9.25;4.38;;;9.20;99.90;;;;;;5099929;28;20127;-75
2022/12/25 02:17:17;;;;;;;7.35;4.10;;;9.20;99.90;;;;;;5091702;28;20044;-76
2022/12/25 02:20:11;;;;;;;7.70;4.95;;;9.20;99.90;;;;;;5108675;28;20031;-76
2022/12/25 02:22:48;;;;;;;5.32;4.00;;;9.20;99.90;;;;;;5106799;28;20057;-75
2022/12/25 02:25:17;;;;;;;9.48;4.40;;;9.20;99.90;;;;;;5112577;28;20024;-76
2022/12/25 02:27:43;;;;;;;5.75;2.72;;;9.20;99.90;;;;;;5088365;28;20032;-76
2022/12/25 02:30:10;;;;;;;6.60;3.72;;;9.10;99.90;;;;;;5088258;28;20028;-76
2022/12/25 02:32:45;;;;;;;8.40;4.57;;;9.00;99.90;;;;;;5079044;28;20031;-76
2022/12/25 02:35:15;;;;;;;7.00;3.88;;;9.10;99.90;;;;;;5108393;28;20053;-76
2022/12/25 02:37:56;;;;;;;5.88;3.90;;;9.10;99.90;;;;;;5126691;28;20023;-76
2022/12/25 02:40:30;;;;;;;7.88;5.57;;;9.10;99.90;;;;;;5108770;28;20027;-76
2022/12/25 03:06:43;;;;;;;5.82;3.75;;;9.20;99.90;;;;;;5112008;28;20032;-76
2022/12/25 03:12:33;;;;;;;4.07;3.10;;;9.30;99.90;;;;;;5108509;28;20028;-76
2022/12/25 03:17:43;;;;;;;3.78;3.13;;;9.30;99.90;;;;;;5105252;28;20036;-75
2022/12/25 03:28:37;;;;;;;1.75;1.65;;;9.40;99.90;;;;;;5059111;28;20028;-78
2022/12/25 03:31:12;;;;;;;8.00;2.75;;;9.60;99.90;;;;;;5111906;28;20442;-78
2022/12/25 04:36:18;;;;;;;4.20;3.53;;;8.80;99.90;;;;;;5109724;28;20485;-78
2022/12/25 04:38:43;;;;;;;4.82;2.40;;;8.90;99.90;;;;;;5110521;28;20020;-78
2022/12/25 04:41:11;;;;;;;5.20;1.88;;;8.90;99.90;;;;;;5110643;28;20056;-77
2022/12/25 04:43:37;;;;;;;5.80;2.38;;;8.90;99.90;;;;;;5110626;28;20028;-78
2022/12/25 04:46:04;;;;;;;8.73;3.05;;;8.90;99.90;;;;;;5075854;28;20473;-78
2022/12/25 04:48:32;;;;;;;4.65;2.72;;;8.90;99.90;;;;;;5092573;28;20035;-78
2022/12/25 04:51:08;;;;;;;2.80;1.77;;;9.00;99.90;;;;;;5110624;28;20028;-78
2022/12/25 04:53:34;;;;;;;2.83;2.50;;;9.00;99.90;;;;;;5110631;28;20099;-77
2022/12/25 04:56:01;;;;;;;2.95;2.72;;;9.00;99.90;;;;;;5110453;28;20024;-78
2022/12/25 04:58:26;;;;;;;11.10;3.58;;;9.00;99.90;;;;;;5110743;28;20413;-78
2022/12/25 05:00:52;;;;;;;5.63;2.92;;;9.10;99.90;;;;;;5092286;28;20044;-78
2022/12/25 05:03:18;;;;;;;3.58;2.58;;;9.10;99.90;;;;;;5092362;28;20020;-78
2022/12/25 05:05:44;;;;;;;6.40;2.03;;;9.10;99.90;;;;;;5110752;28;20040;-77
2022/12/25 05:08:10;;;;;;;6.90;3.90;;;9.10;99.90;;;;;;5110740;28;20036;-78
2022/12/25 05:10:39;;;;;;;3.17;2.95;;;9.10;99.90;;;;;;5110440;28;20083;-78
2022/12/25 05:13:04;;;;;;;7.25;2.88;;;9.20;99.90;;;;;;5091874;28;20032;-78
2022/12/25 05:15:30;;;;;;;3.65;1.13;;;9.20;99.90;;;;;;5091808;28;20048;-78
2022/12/25 05:17:56;;;;;;;3.72;1.85;;;9.20;99.90;;;;;;5091132;28;20091;-78
2022/12/25 05:20:22;;;;;;;3.65;1.80;;;9.20;99.90;;;;;;5093105;28;20031;-77
2022/12/25 05:22:48;;;;;;;2.67;2.00;;;9.20;99.90;;;;;;5116391;28;20039;-78
2022/12/25 05:25:13;;;;;;;7.03;2.83;;;9.20;99.90;;;;;;5111789;28;20031;-78
2022/12/25 05:27:39;;;;;;;4.13;3.05;;;9.10;99.90;;;;;;5111238;28;20024;-78
2022/12/25 05:30:06;;;;;;;2.40;1.63;;;9.00;99.90;;;;;;5128890;28;20085;-78
2022/12/25 05:32:31;;;;;;;4.78;2.45;;;9.00;99.90;;;;;;5111265;28;20028;-78
2022/12/25 05:34:59;;;;;;;4.78;2.40;;;8.90;99.90;;;;;;5111328;28;20522;-78
2022/12/25 05:37:25;;;;;;;9.27;2.75;;;8.80;99.90;;;;;;5130195;28;20065;-78
2022/12/25 05:39:51;;;;;;;2.42;2.00;;;8.70;99.90;;;;;;5130433;28;20076;-78
2022/12/25 05:42:17;;;;;;;5.13;2.08;;;8.70;99.90;;;;;;5093077;28;20446;-78
2022/12/25 05:44:42;;;;;;;4.25;1.67;;;8.70;99.90;;;;;;5082224;28;20032;-78
2022/12/25 05:47:08;;;;;;;5.30;3.33;;;8.70;99.90;;;;;;5080238;28;20036;-78
2022/12/25 05:49:34;;;;;;;3.65;1.73;;;8.70;99.90;;;;;;5078769;28;20123;-77
2022/12/25 05:52:00;;;;;;;2.70;1.98;;;8.70;99.90;;;;;;5088395;28;20036;-78
2022/12/25 05:54:26;;;;;;;4.40;2.30;;;8.80;99.90;;;;;;5087494;28;20068;-77
2022/12/25 05:56:52;;;;;;;6.90;2.25;;;8.80;99.90;;;;;;5082363;28;20566;-78
2022/12/25 05:59:18;;;;;;;2.10;1.80;;;8.90;99.90;;;;;;5074092;28;20040;-78
2022/12/25 06:01:45;;;;;;;2.50;1.92;;;8.90;99.90;;;;;;5069177;28;20017;-78
2022/12/25 06:04:11;;;;;;;3.40;2.47;;;8.90;99.90;;;;;;5069523;28;20033;-78
2022/12/25 06:06:37;;;;;;;5.07;3.05;;;8.80;99.90;;;;;;5086609;28;20070;-78
2022/12/25 06:09:02;;;;;;;4.57;2.40;;;8.80;99.90;;;;;;5072662;28;20032;-78
2022/12/25 06:11:28;;;;;;;3.83;1.75;;;8.80;99.90;;;;;;5058724;28;20143;-78
2022/12/25 06:13:54;;;;;;;3.90;1.23;;;8.80;99.90;;;;;;5114515;28;20027;-78
2022/12/25 06:16:20;;;;;;;2.72;2.47;;;8.80;99.90;;;;;;5079525;28;20039;-78
2022/12/25 06:18:50;;;;;;;2.75;1.65;;;8.80;99.90;;;;;;5080267;28;20021;-78
2022/12/25 06:21:16;;;;;;;;;;;8.80;99.90;;;;;;5072547;28;20088;-78
2022/12/25 06:23:43;;;;;;;4.53;3.08;;;8.80;99.90;;;;;;5082589;28;19912;-78
2022/12/25 06:26:12;;;;;;;4.20;2.50;;;8.80;99.90;;;;;;5064205;28;20040;-77
2022/12/25 06:28:38;;;;;;;2.80;1.75;;;8.80;99.90;;;;;;5090270;28;20039;-78
2022/12/25 06:31:08;;;;;;;5.57;1.63;;;8.80;99.90;;;;;;5103007;28;20032;-78
2022/12/25 06:33:34;;;;;;;7.80;3.33;;;8.80;99.90;;;;;;5117702;28;20027;-77
2022/12/25 06:36:08;;;;;;;5.50;3.55;;;8.80;99.90;;;;;;5104400;28;20103;-78
2022/12/25 06:38:34;;;;;;;2.55;1.88;;;8.80;99.90;;;;;;5063390;28;20036;-78
2022/12/25 06:41:11;;;;;;;3.08;2.22;;;8.80;99.90;;;;;;5082779;28;20093;-78
2022/12/25 06:43:37;;;;;;;4.95;3.22;;;8.80;99.90;;;;;;5082129;28;20043;-78
2022/12/25 06:46:08;;;;;;;4.13;2.45;;;8.80;99.90;;;;;;5072918;28;20044;-78
2022/12/25 06:48:35;;;;;;;8.63;2.78;;;8.80;99.90;;;;;;5065074;28;20032;-78
2022/12/25 06:51:01;;;;;;;5.18;1.95;;;8.80;99.90;;;;;;5082646;28;20017;-78
2022/12/25 06:53:28;;;;;;;3.35;2.95;;;8.80;99.90;;;;;;5072535;28;20425;-78
2022/12/25 06:56:05;;;;;;;4.07;2.13;;;8.80;99.90;;;;;;5091191;28;20032;-77
2022/12/25 06:58:31;;;;;;;5.20;2.53;;;8.80;99.90;;;;;;5080769;28;20032;-78
2022/12/25 07:00:57;;;;;;;4.75;2.33;;;8.80;99.90;;;;;;5084073;28;20016;-78
2022/12/25 07:03:27;;;;;;;2.60;2.40;;;8.80;99.90;;;;;;5081050;28;20024;-78
2022/12/25 07:05:53;;;;;;;6.93;2.80;;;8.80;99.90;;;;;;5056932;28;20040;-78
2022/12/25 07:08:18;;;;;;;4.22;2.35;;;8.80;99.90;;;;;;5072656;28;20027;-78
2022/12/25 07:10:44;;;;;;;2.38;1.85;;;8.70;99.90;;;;;;5069435;28;20033;-78
2022/12/25 07:13:10;;;;;;;4.25;3.10;;;8.70;99.90;;;;;;5109314;28;20409;-78
2022/12/25 07:15:36;;;;;;;7.38;2.28;;;8.70;99.90;;;;;;5090276;28;20404;-78
2022/12/25 07:18:02;;;;;;;4.05;3.08;;;8.70;99.90;;;;;;5087423;28;20031;-78
2022/12/25 07:20:28;;;;;;;6.85;4.20;;;8.60;99.90;;;;;;5074709;28;20481;-78
2022/12/25 07:22:54;;;;;;;2.85;2.17;;;8.60;99.90;;;;;;5070080;28;20043;-78
2022/12/25 07:25:20;;;;;;;5.05;3.25;;;8.60;99.90;;;;;;5102567;28;20013;-78
2022/12/25 07:27:46;;;;;;;4.22;3.83;;;8.50;99.90;;;;;;5072690;28;20040;-78
2022/12/25 07:30:12;;;;;;;4.57;3.08;;;8.50;99.90;;;;;;5093010;28;20055;-78
2022/12/25 07:32:38;;;;;;;3.33;2.38;;;8.50;99.90;;;;;;5078369;28;20042;-78
2022/12/25 07:35:05;;;;;;;3.80;3.50;;;8.50;99.90;;;;;;5076287;28;20032;-78
2022/12/25 07:37:31;;;;;;;5.43;2.88;;;8.50;99.90;;;;;;5074058;28;20489;-79
2022/12/25 07:39:56;;;;;;;6.60;3.97;;;8.40;99.90;;;;;;5060888;28;20028;-78
2022/12/25 07:42:22;;;;;;;2.28;2.08;;;8.40;99.90;;;;;;5092379;28;20548;-78
2022/12/25 07:44:48;;;;;;;3.20;2.63;;;8.40;99.90;;;;;;5117757;28;20024;-78
2022/12/25 07:47:14;;;;;;;5.85;2.85;;;8.50;99.90;;;;;;5073608;28;20080;-78
2022/12/25 07:49:40;;;;;;;4.20;1.90;;;8.50;99.90;;;;;;5081732;28;20035;-78
2022/12/25 07:52:06;;;;;;;6.28;3.10;;;8.50;99.90;;;;;;5097293;28;20027;-78
2022/12/25 07:54:32;;;;;;;8.00;2.63;;;8.50;99.90;;;;;;5069899;28;20029;-79
2022/12/25 07:56:58;;;;;;;5.38;2.17;;;8.50;99.90;;;;;;5107576;28;20047;-78
2022/12/25 07:59:24;;;;;;;5.65;2.30;;;8.50;99.90;;;;;;5111806;28;20031;-78
2022/12/25 08:01:50;;;;;;;5.18;3.63;;;8.50;99.90;;;;;;5098351;28;20465;-79
2022/12/25 08:04:16;;;;;;;6.45;1.95;;;8.60;99.90;;;;;;5092138;28;20016;-79
2022/12/25 08:06:41;;;;;;;2.47;2.10;;;8.60;99.90;;;;;;5080730;28;20528;-79
2022/12/25 08:09:10;;;;;;;3.53;2.28;;;8.70;99.90;;;;;;5075158;28;20036;-78
2022/12/25 08:11:37;;;;;;;9.45;2.92;;;8.70;99.90;;;;;;5075034;28;20032;-79
2022/12/25 08:14:07;;;;;;;4.93;2.38;;;8.60;99.90;;;;;;5086142;28;20048;-79
2022/12/25 08:16:33;;;;;;;;;;;8.70;99.90;;;;;;5055314;28;20056;-78
2022/12/25 08:19:00;;;;;;;5.15;2.58;;;8.70;99.90;;;;;;5065691;28;19909;-78
2022/12/25 08:21:26;;;;;;;3.60;3.08;;;8.70;99.90;;;;;;5049791;28;20071;-78
2022/12/25 08:23:51;;;;;;;2.25;1.80;;;8.70;99.90;;;;;;5068722;28;20021;-79
2022/12/25 08:26:20;;;;;;;4.63;3.20;;;8.80;99.90;;;;;;5068759;28;20039;-78
2022/12/25 08:28:48;;;;;;;3.90;3.60;;;8.70;99.90;;;;;;5085601;28;20041;-78
2022/12/25 08:31:18;;;;;;;5.55;2.80;;;8.70;99.90;;;;;;5084330;28;20139;-78
2022/12/25 08:33:44;;;;;;;2.33;2.10;;;8.70;99.90;;;;;;5078524;28;20075;-78
2022/12/25 08:36:11;;;;;;;4.35;3.00;;;8.70;99.90;;;;;;5069012;28;20106;-79
2022/12/25 08:38:37;;;;;;;4.53;2.70;;;8.60;99.90;;;;;;5086024;28;20064;-79
2022/12/25 08:41:03;;;;;;;4.50;2.83;;;8.60;99.90;;;;;;5085749;28;20031;-79
2022/12/25 08:43:29;;;;;;;3.08;2.78;;;8.60;99.90;;;;;;5105570;28;20036;-79
2022/12/25 08:45:55;;;;;;;6.30;5.05;;;8.60;99.90;;;;;;5090157;28;20032;-79
2022/12/25 08:48:21;;;;;;;3.42;3.10;;;8.60;99.90;;;;;;5089251;28;20020;-79
2022/12/25 08:50:51;;;;;;;6.05;3.33;;;8.60;99.90;;;;;;5108332;28;20427;-79
2022/12/25 08:53:18;;;;;;;5.00;4.60;;;8.60;99.90;;;;;;5090006;28;20088;-79
2022/12/25 08:55:44;;;;;;;8.43;5.82;;;8.60;99.90;;;;;;5108069;28;20087;-79
2022/12/25 08:58:11;;;;;;;7.47;4.82;;;8.60;99.90;;;;;;5076986;28;20020;-79
2022/12/25 09:00:38;;;;;;;6.10;5.53;;;8.60;99.90;;;;;;5128242;28;20122;-78
2022/12/25 09:03:04;;;;;;;9.23;6.20;;;8.60;99.90;;;;;;5093716;28;20051;-79
2022/12/25 09:05:30;;;;;;;8.35;5.45;;;8.70;99.90;;;;;;5111119;28;20036;-77
2022/12/25 09:07:56;;;;;;;7.78;6.53;;;8.80;99.90;;;;;;5126400;28;20035;-80
2022/12/25 09:10:22;;;;;;;4.85;4.35;;;8.80;99.90;;;;;;5075316;28;20027;-77
2022/12/25 09:12:48;;;;;;;2.80;2.50;;;8.90;99.90;;;;;;5084334;28;20032;-80
2022/12/25 09:15:14;;;;;;;5.32;2.63;;;8.80;99.90;;;;;;5125520;28;20044;-79
2022/12/25 09:17:40;;;;;;;5.18;4.35;;;8.70;99.90;;;;;;5111289;28;20032;-79
2022/12/25 09:20:06;;;;;;;5.60;3.92;;;8.60;99.90;;;;;;5129906;28;20023;-78
2022/12/25 09:22:33;;;;;;;5.03;4.55;;;8.50;99.90;;;;;;5110050;28;20032;-78
2022/12/25 09:24:59;;;;;;;9.88;4.68;;;8.50;99.90;;;;;;5115353;28;20016;-77
2022/12/25 09:27:25;;;;;;;10.73;3.70;;;8.60;99.90;;;;;;5106100;28;20085;-78
2022/12/25 09:29:51;;;;;;;5.80;4.72;;;8.60;99.90;;;;;;5091478;28;20043;-77
2022/12/25 09:32:17;;;;;;;6.50;5.30;;;8.60;99.90;;;;;;5093078;28;20032;-77
2022/12/25 09:34:43;;;;;;;6.00;3.72;;;8.60;99.90;;;;;;5092288;28;20040;-77
2022/12/25 09:37:09;;;;;;;6.93;5.00;;;8.70;99.90;;;;;;5108561;28;20040;-77
2022/12/25 09:39:35;;;;;;;6.32;4.38;;;8.80;99.90;;;;;;5112403;28;20371;-77
2022/12/25 09:42:08;;;;;;;6.47;3.80;;;8.80;99.90;;;;;;5128354;28;20358;-77
2022/12/25 09:44:39;;;;;;;6.20;4.03;;;8.80;99.90;;;;;;5127842;28;20028;-76
2022/12/25 09:47:13;;;;;;;10.35;5.38;;;8.80;99.90;;;;;;5109732;28;20053;-77
2022/12/25 09:49:56;;;;;;;9.07;5.68;;;8.90;99.90;;;;;;5125864;28;20095;-77
2022/12/25 09:52:30;;;;;;;6.90;5.28;;;8.90;99.90;;;;;;5127872;28;20065;-77
2022/12/25 09:55:14;;;;;;;5.68;4.82;;;8.90;99.90;;;;;;5110636;28;20035;-77
2022/12/25 09:57:40;;;;;;;4.95;4.53;;;9.00;99.90;;;;;;5110479;28;20035;-77
2022/12/25 10:00:17;;;;;;;5.43;4.43;;;9.00;99.90;;;;;;5116692;28;20107;-77
2022/12/25 10:03:01;;;;;;;5.22;4.82;;;9.00;99.90;;;;;;5069776;28;20029;-77
2022/12/25 10:05:33;;;;;;;18.00;5.30;;;8.90;99.90;;;;;;5089658;28;20027;-77
2022/12/25 10:08:21;;;;;;;5.18;4.30;;;9.00;99.90;;;;;;5100596;28;20031;-77
2022/12/25 10:10:58;;;;;;;5.40;4.72;;;9.00;99.90;;;;;;5088991;28;20370;-77
2022/12/25 10:13:57;;;;;;;5.03;4.35;;;9.00;99.90;;;;;;5089635;28;20034;-76
2022/12/25 10:16:38;;;;;;;8.75;4.07;;;9.00;99.90;;;;;;5108514;28;20036;-76
2022/12/25 10:19:41;;;;;;;4.30;4.00;;;9.00;99.90;;;;;;5072839;28;20051;-76
2022/12/25 10:22:17;;;;;;;5.43;3.60;;;8.90;99.90;;;;;;5073668;28;20024;-76
2022/12/25 10:24:51;;;;;;;4.80;4.13;;;8.90;99.90;;;;;;5090126;28;20036;-76
2022/12/25 10:27:29;;;;;;;3.35;3.05;;;8.90;99.90;;;;;;5107701;28;20035;-76
2022/12/25 10:29:55;;;;;;;5.38;4.60;;;8.80;99.90;;;;;;5123897;28;20027;-76
2022/12/25 10:32:21;;;;;;;4.43;3.92;;;8.80;99.90;;;;;;5127614;28;20039;-76
2022/12/25 10:34:48;;;;;;;10.82;4.95;;;8.80;99.90;;;;;;5127585;28;20028;-76
2022/12/25 10:37:15;;;;;;;4.60;4.07;;;8.80;99.90;;;;;;5092114;28;20057;-76
2022/12/25 10:39:42;;;;;;;5.70;4.68;;;8.80;99.90;;;;;;5077977;28;20495;-76
2022/12/25 10:42:32;;;;;;;5.18;4.78;;;8.80;99.90;;;;;;5087580;28;20035;-76
2022/12/25 10:45:06;;;;;;;4.38;3.95;;;9.10;99.90;;;;;;5106917;28;20044;-77
2022/12/25 10:47:36;;;;;;;6.13;4.18;;;9.00;99.90;;;;;;5106629;28;20172;-76
2022/12/25 10:50:20;;;;;;;5.32;4.82;;;9.10;99.90;;;;;;5088024;28;20036;-76
2022/12/25 10:53:00;;;;;;;7.60;6.88;;;9.10;99.90;;;;;;5107491;28;20096;-75
2022/12/25 10:55:26;;;;;;;;;;;9.10;99.90;;;;;;5106973;28;20032;-76
2022/12/25 10:57:53;;;;;;;6.00;5.28;;;9.00;99.90;;;;;;5104311;28;20358;-76
2022/12/25 11:00:22;;;;;;;8.65;6.35;;;9.00;99.90;;;;;;5068557;28;20029;-75
2022/12/25 11:02:48;;;;;;;10.27;7.38;;;9.00;99.90;;;;;;5090746;28;20099;-79
2022/12/25 11:05:30;;;;;;;11.23;10.13;;;9.00;99.90;;;;;;5089329;28;20046;-80
2022/12/25 11:07:58;;;;;;;16.75;10.05;;;9.10;99.90;;;;;;5101179;28;20099;-80
2022/12/25 11:10:30;;;;;;;13.40;10.43;;;9.10;99.90;;;;;;5096830;28;20030;-79
2022/12/25 11:12:57;;;;;;;15.07;10.13;;;9.10;99.90;;;;;;5088293;28;20059;-79
2022/12/25 11:15:45;;;;;;;9.68;7.40;;;9.10;99.90;;;;;;5107214;28;20055;-80
2022/12/25 11:18:24;;;;;;;11.13;8.15;;;9.10;99.90;;;;;;5089726;28;20036;-80
2022/12/25 11:20:56;;;;;;;8.52;6.72;;;9.20;99.90;;;;;;5107122;28;20024;-80
2022/12/25 11:23:25;;;;;;;9.63;7.32;;;9.10;99.90;;;;;;5088864;28;20099;-80
2022/12/25 11:26:17;;;;;;;10.52;8.13;;;9.20;99.90;;;;;;5109363;28;20027;-80
2022/12/25 11:28:45;;;;;;;16.85;9.32;;;9.30;99.90;;;;;;5090930;28;20051;-79
2022/12/25 11:31:13;;;;;;;13.15;8.30;;;9.20;99.90;;;;;;5111470;28;20024;-81
2022/12/25 11:33:51;;;;;;;10.02;8.45;;;9.20;99.90;;;;;;5110813;28;20016;-80
2022/12/25 11:36:26;;;;;;;8.75;7.75;;;9.30;99.90;;;;;;5110363;28;20031;-80
2022/12/25 11:38:51;;;;;;;15.20;9.35;;;9.20;99.90;;;;;;5111313;28;20031;-80
2022/12/25 11:41:22;;;;;;;9.30;8.32;;;9.20;99.90;;;;;;5077963;28;20012;-80
2022/12/25 11:43:58;;;;;;;;;;;9.30;99.90;;;;;;5112725;28;20020;-79
2022/12/25 11:46:41;;;;;;;10.38;9.45;;;9.40;99.90;;;;;;5091669;28;19957;-80
2022/12/25 11:49:15;;;;;;;11.50;8.20;;;9.40;99.90;;;;;;5110230;28;20035;-80
2022/12/25 11:51:45;;;;;;;8.77;7.88;;;9.40;99.90;;;;;;5092891;28;20431;-79
2022/12/25 11:54:21;;;;;;;8.85;7.95;;;9.50;99.90;;;;;;5110907;28;20039;-79
2022/12/25 11:56:49;;;;;;;10.52;9.07;;;9.50;99.90;;;;;;5111486;28;20032;-79
2022/12/25 11:59:26;;;;;;;11.55;8.85;;;9.50;99.90;;;;;;5111113;28;20039;-80
2022/12/25 12:02:28;;;;;;;14.35;10.07;;;9.50;99.90;;;;;;5111163;28;20032;-79
2022/12/25 12:05:24;;;;;;;10.60;8.48;;;9.60;99.90;;;;;;5068854;28;20062;-79
2022/12/25 12:08:04;;;;;;;9.52;8.60;;;9.60;99.90;;;;;;5111269;28;20078;-80
2022/12/25 12:10:51;;;;;;;10.00;7.53;;;9.60;99.90;;;;;;5093196;28;20047;-80
2022/12/25 12:13:26;;;;;;;6.78;6.07;;;9.60;99.90;;;;;;5111776;28;20025;-79
2022/12/25 12:15:52;;;;;;;8.30;7.43;;;9.60;99.90;;;;;;5071589;28;20422;-79
2022/12/25 12:18:26;;;;;;;9.50;7.10;;;9.70;99.90;;;;;;5067112;28;20016;-79
2022/12/25 12:21:07;;;;;;;8.27;7.43;;;9.70;99.90;;;;;;5069205;28;20048;-79
2022/12/25 12:23:56;;;;;;;8.68;7.88;;;9.60;99.90;;;;;;5065047;28;20030;-78
2022/12/25 12:26:30;;;;;;;9.38;8.45;;;9.70;99.90;;;;;;5049623;28;20032;-80
2022/12/25 12:28:59;;;;;;;10.13;7.35;;;9.60;99.90;;;;;;5049393;28;20056;-80
2022/12/25 12:31:43;;;;;;;8.02;7.32;;;9.50;99.90;;;;;;5055203;28;20033;-80
2022/12/25 12:34:47;;;;;;;8.02;7.22;;;9.50;99.90;;;;;;5079578;28;20494;-80
2022/12/25 12:37:35;;;;;;;7.97;7.22;;;9.50;99.90;;;;;;5010224;28;20034;-79
2022/12/25 12:40:04;;;;;;;7.38;6.05;;;9.50;99.90;;;;;;5066808;28;20039;-80
2022/12/25 12:42:45;;;;;;;17.20;11.85;;;9.60;99.90;;;;;;5072969;28;20429;-80
2022/12/25 12:45:22;;;;;;;10.18;8.70;;;9.60;99.90;;;;;;5051084;28;20025;-80
2022/12/25 12:47:49;;;;;;;11.88;8.32;;;9.60;99.90;;;;;;5049771;28;20032;-80
2022/12/25 12:51:00;;;;;;;7.82;6.68;;;9.60;99.90;;;;;;5050544;28;20025;-80
2022/12/25 12:53:30;;;;;;;8.85;6.82;;;9.60;99.90;;;;;;5029778;28;20113;-80
2022/12/25 12:56:15;;;;;;;5.95;5.45;;;9.60;99.90;;;;;;5027506;28;20057;-79
2022/12/25 12:58:47;;;;;;;6.35;5.75;;;9.50;99.90;;;;;;5065008;28;20463;-80
2022/12/25 13:01:31;;;;;;;9.50;5.70;;;9.50;99.90;;;;;;5066270;28;20029;-79
2022/12/25 13:04:18;;;;;;;7.10;6.55;;;9.50;99.90;;;;;;5075321;28;20074;-79
2022/12/25 13:06:57;;;;;;;5.28;4.88;;;9.50;99.90;;;;;;5058985;28;20364;-80
2022/12/25 13:09:22;;;;;;;7.05;6.43;;;9.50;99.90;;;;;;5062581;28;20057;-80
2022/12/25 13:11:49;;;;;;;6.97;6.38;;;9.50;99.90;;;;;;5066426;28;20017;-79
2022/12/25 13:14:21;;;;;;;5.78;5.32;;;9.50;99.90;;;;;;5083357;28;20073;-79
2022/12/25 13:16:51;;;;;;;6.30;5.80;;;9.60;99.90;;;;;;5068589;28;20104;-79
2022/12/25 13:19:28;;;;;;;5.68;5.15;;;9.60;99.90;;;;;;5069441;28;20079;-78
2022/12/25 13:22:02;;;;;;;6.63;5.95;;;9.60;99.90;;;;;;5073378;28;20021;-79
2022/12/25 13:24:31;;;;;;;5.18;4.78;;;9.50;99.90;;;;;;5087928;28;20071;-78
2022/12/25 13:26:58;;;;;;;8.77;6.35;;;9.40;99.90;;;;;;5087827;28;20025;-78
2022/12/25 13:29:37;;;;;;;7.63;6.80;;;9.40;99.90;;;;;;5078669;28;20036;-77
2022/12/25 13:32:05;;;;;;;6.82;5.90;;;9.40;99.90;;;;;;5072686;28;20083;-78
2022/12/25 13:34:35;;;;;;;6.47;5.82;;;9.50;99.90;;;;;;5069434;28;20021;-79
2022/12/25 13:37:11;;;;;;;5.45;4.95;;;9.40;99.90;;;;;;5067703;28;20078;-79
2022/12/25 13:39:45;;;;;;;8.52;5.93;;;9.40;99.90;;;;;;5084709;28;20055;-78
2022/12/25 13:42:19;;;;;;;7.15;6.47;;;9.30;99.90;;;;;;5069876;28;20028;-79
2022/12/25 13:44:46;;;;;;;6.65;5.22;;;9.40;99.90;;;;;;5065979;28;20025;-79
2022/12/25 13:47:32;;;;;;;6.28;5.78;;;9.40;99.90;;;;;;5050259;28;20529;-79
2022/12/25 13:50:11;;;;;;;5.35;4.93;;;9.30;99.90;;;;;;5066684;28;20087;-79
2022/12/25 13:52:38;;;;;;;6.63;5.90;;;9.30;99.90;;;;;;5066928;28;20021;-79
2022/12/25 13:55:28;;;;;;;9.07;8.18;;;9.30;99.90;;;;;;5062050;28;20101;-79
2022/12/25 13:58:01;;;;;;;7.47;6.68;;;9.30;99.90;;;;;;5065231;28;20028;-79
2022/12/25 14:00:31;;;;;;;8.32;7.53;;;9.40;99.90;;;;;;5049373;28;20025;-79
2022/12/25 14:02:57;;;;;;;;;;;9.30;99.90;;;;;;5071133;28;20025;-78
2022/12/25 14:05:30;;;;;;;6.45;5.88;;;9.20;99.90;;;;;;5068783;28;20425;-79
2022/12/25 14:07:58;;;;;;;6.68;6.13;;;9.30;99.90;;;;;;5067951;28;20036;-79
2022/12/25 14:10:27;;;;;;;7.43;6.75;;;9.30;99.90;;;;;;5045837;28;20022;-79
2022/12/25 14:12:57;;;;;;;7.72;7.03;;;9.30;99.90;;;;;;5064093;28;20382;-78
2022/12/25 14:15:25;;;;;;;6.43;5.82;;;9.40;99.90;;;;;;5064149;28;20068;-79
2022/12/25 14:17:52;;;;;;;7.32;6.70;;;9.40;99.90;;;;;;5064941;28;20060;-79
2022/12/25 14:20:28;;;;;;;8.18;7.43;;;9.50;99.90;;;;;;5062993;28;20058;-79
2022/12/25 14:22:59;;;;;;;7.38;6.45;;;9.50;99.90;;;;;;5065384;28;20025;-79
2022/12/25 14:25:32;;;;;;;6.68;6.03;;;9.50;99.90;;;;;;5067351;28;20117;-79
2022/12/25 14:28:03;;;;;;;11.85;10.95;;;9.50;99.90;;;;;;5054091;28;20025;-79
2022/12/25 14:30:29;;;;;;;11.30;10.18;;;9.50;99.90;;;;;;5066809;28;20040;-79
2022/12/25 14:32:56;;;;;;;9.48;8.57;;;9.60;99.90;;;;;;5066223;28;20033;-79
2022/12/25 14:35:24;;;;;;;9.40;8.60;;;9.50;99.90;;;;;;5068357;28;20105;-79
2022/12/25 14:37:59;;;;;;;12.20;11.20;;;9.40;99.90;;;;;;5068711;28;20040;-79
2022/12/25 14:40:29;;;;;;;10.10;9.20;;;9.40;99.90;;;;;;5068587;28;20033;-78
2022/12/25 14:42:56;;;;;;;9.60;8.70;;;9.40;99.90;;;;;;5066510;28;20100;-79
2022/12/25 14:45:37;;;;;;;10.43;9.50;;;9.40;99.90;;;;;;5054333;28;21234;-79
2022/12/25 14:48:23;;;;;;;8.38;7.72;;;9.40;99.90;;;;;;5066743;28;20025;-79
2022/12/25 14:51:04;;;;;;;7.68;7.07;;;9.40;99.90;;;;;;5068115;28;20044;-79
2022/12/25 14:53:36;;;;;;;8.70;7.82;;;9.40;99.90;;;;;;5088899;28;20033;-79
2022/12/25 14:56:03;;;;;;;6.57;6.07;;;9.50;99.90;;;;;;5069483;28;20037;-78
2022/12/25 14:58:33;;;;;;;12.07;11.00;;;9.50;99.90;;;;;;5066048;28;20025;-79